• Join FlightAware (Why Join?)
  • Login
  • US Flag 
03:04PM EDT


 

Airport Tracker/Info


-or-


 

Live Flight TrackerFlight Track Log ✈ CTL13 ✈ 22-Apr-2013 ✈ KBKL - KEYE

Flight Track Log - Related Links

Times and Time Zones

All times are in EDT time to prevent confusion due to time zone crossing. See the CTL13 flight status page for this flight to view local times or setup timezone preferences in your user account.

Time Position Orientation Groundspeed Altitude Reporting Facility
EDT Latitude Longitude Course Direction KTS MPH feet Rate Location/Type
06:39PM 41.5233 -81.6758 348° North 110 127 900  Level Cleveland Center
06:41PM 41.5647 -81.6878 348° North 145 167 2,200 1,200 Climbing Cleveland Center
06:42PM 41.5872 -81.7297 306° West 132 152 3,600 1,140 Climbing Cleveland Center
06:43PM 41.5994 -81.7772 289° West 132 152 4,500 780 Climbing Cleveland Center
06:44PM 41.5989 -81.8300 269° West 154 177 5,200 720 Climbing Cleveland Center
06:45PM 41.5961 -81.8881 266° West 145 167 6,100 720 Climbing Cleveland Center
06:46PM 41.5725 -81.9431 240° Southwest 141 162 6,900 660 Climbing Cleveland Center
06:47PM 41.5553 -81.9872 242° Southwest 134 154 7,600 660 Climbing Cleveland Center
06:48PM 41.5339 -82.0394 241° Southwest 136 157 8,400 660 Climbing Cleveland Center
06:49PM 41.5211 -82.0614 232° Southwest 138 159 8,800 540 Climbing Cleveland Center
06:49PM 41.5164 -82.0833 254° West 138 159 9,000 660 Climbing Cleveland Center
06:50PM 41.5036 -82.1053 232° Southwest 138 159 9,500 540 Climbing Cleveland Center
06:51PM 41.4864 -82.1464 241° Southwest 143 165 9,900 240 Climbing Cleveland Center
06:52PM 41.4669 -82.1958 242° Southwest 143 165 10,000  Climbing Cleveland Center
06:53PM 41.4456 -82.2481 241° Southwest 157 181 10,000  Level Cleveland Center
06:54PM 41.4239 -82.3000 241° Southwest 157 181 10,000  Level Cleveland Center
06:55PM 41.4064 -82.3522 246° West 162 186 10,000  Level Cleveland Center
06:56PM 41.3847 -82.4042 241° Southwest 157 181 10,000 -60 Level Cleveland Center
06:57PM 41.3631 -82.4589 242° Southwest 157 181 9,900  Descending Cleveland Center
06:58PM 41.3414 -82.5108 241° Southwest 157 181 10,000  Climbing Cleveland Center
06:59PM 41.3175 -82.5653 240° Southwest 157 181 10,000  Level Cleveland Center
07:00PM 41.2978 -82.6172 243° Southwest 157 181 10,000  Level Cleveland Center
07:01PM 41.2758 -82.6692 241° Southwest 157 181 10,100  Climbing Cleveland Center
07:02PM 41.2542 -82.7236 242° Southwest 157 181 10,000 -60 Descending Cleveland Center
07:03PM 41.2322 -82.7756 241° Southwest 157 181 10,000 -60 Level Cleveland Center
07:04PM 41.2106 -82.8244 240° Southwest 162 186 9,900 -60 Descending Cleveland Center
07:05PM 41.1864 -82.8786 239° Southwest 162 186 9,900  Level Cleveland Center
07:06PM 41.1644 -82.9303 241° Southwest 162 186 9,900  Level Cleveland Center
07:07PM 41.1428 -82.9792 240° Southwest 162 186 9,900  Level Cleveland Center
07:08PM 41.1228 -83.0308 243° Southwest 162 186 10,000  Climbing Cleveland Center
07:09PM 41.1008 -83.0769 238° Southwest 162 186 10,000  Level Cleveland Center
07:10PM 41.0811 -83.1286 243° Southwest 162 186 10,000  Level Cleveland Center
07:11PM 41.0611 -83.1828 244° Southwest 162 186 10,000  Level Cleveland Center
07:12PM 41.0392 -83.2314 239° Southwest 162 186 10,000  Level Cleveland Center
07:13PM 41.0169 -83.2828 240° Southwest 151 174 10,000  Level Cleveland Center
07:14PM 40.9972 -83.3317 242° Southwest 156 180 10,000  Level Cleveland Center
07:15PM 40.9750 -83.3803 239° Southwest 156 180 10,000  Level Cleveland Center
07:16PM 40.9322 -83.4739 239° Southwest 158 182 10,000  Level Indianapolis Center
07:18PM 40.9114 -83.5250 242° Southwest 158 182 10,000  Level Indianapolis Center
07:19PM 40.8886 -83.5756 239° Southwest 158 182 10,000  Level Indianapolis Center
07:20PM 40.8653 -83.6264 239° Southwest 159 183 10,000  Level Indianapolis Center
07:21PM 40.8425 -83.6786 240° Southwest 161 185 10,000  Level Indianapolis Center
07:22PM 40.8211 -83.7300 241° Southwest 161 185 10,000  Level Indianapolis Center
07:23PM 40.7978 -83.7783 237° Southwest 158 182 10,000  Level Indianapolis Center
07:24PM 40.7753 -83.8289 240° Southwest 158 182 10,000  Level Indianapolis Center
07:25PM 40.7472 -83.8861 237° Southwest 158 182 10,000  Level Indianapolis Center
07:26PM 40.7236 -83.9347 237° Southwest 156 180 10,000  Level Indianapolis Center
07:27PM 40.7006 -83.9828 238° Southwest 155 178 10,000  Level Indianapolis Center
07:28PM 40.6817 -84.0350 245° Southwest 156 180 10,000  Level Indianapolis Center
07:29PM 40.6614 -84.0867 243° Southwest 157 181 10,000  Level Indianapolis Center
07:30PM 40.6325 -84.1306 229° Southwest 158 182 10,000  Level Indianapolis Center
07:31PM 40.6039 -84.1767 231° Southwest 160 184 10,000  Level Indianapolis Center
07:32PM 40.5767 -84.2225 232° Southwest 160 184 10,000  Level Indianapolis Center
07:33PM 40.5469 -84.2797 236° Southwest 160 184 10,000  Level Indianapolis Center
07:34PM 40.5214 -84.3283 235° Southwest 160 184 10,000  Level Indianapolis Center
07:35PM 40.4936 -84.3758 232° Southwest 163 188 10,000  Level Indianapolis Center
07:36PM 40.4669 -84.4222 233° Southwest 161 185 10,000  Level Indianapolis Center
07:37PM 40.4403 -84.4711 234° Southwest 161 185 10,000  Level Indianapolis Center
07:38PM 40.4139 -84.5197 235° Southwest 161 185 10,000  Level Indianapolis Center
07:39PM 40.3869 -84.5697 235° Southwest 163 188 10,000  Level Indianapolis Center
07:40PM 40.3614 -84.6133 232° Southwest 164 189 10,000  Level Indianapolis Center
07:41PM 40.3328 -84.6661 235° Southwest 163 188 10,000  Level Indianapolis Center
07:42PM 40.3072 -84.7125 234° Southwest 163 188 10,000  Level Indianapolis Center
07:43PM 40.2747 -84.7736 235° Southwest 163 188 10,000  Level Indianapolis Center
07:44PM 40.2500 -84.8208 236° Southwest 163 188 10,000  Level Indianapolis Center
07:45PM 40.2228 -84.8675 233° Southwest 162 186 10,000  Level Indianapolis Center
07:46PM 40.1967 -84.9161 235° Southwest 161 185 10,000  Level Indianapolis Center
07:47PM 40.1694 -84.9647 234° Southwest 162 186 10,000  Level Indianapolis Center
07:48PM 40.1453 -85.0142 237° Southwest 162 186 10,000  Level Indianapolis Center
07:49PM 40.1336 -85.0789 257° West 159 183 10,100  Climbing Indianapolis Center
07:50PM 40.1206 -85.1267 250° West 160 184 10,000  Descending Indianapolis Center
07:51PM 40.1072 -85.1839 253° West 162 186 10,100  Climbing Indianapolis Center
07:52PM 40.0967 -85.2419 257° West 163 188 10,000 -300 Descending Indianapolis Center
07:53PM 40.0861 -85.3122 259° West 166 191 9,500 -480 Descending Indianapolis Center
07:55PM 40.0781 -85.3769 261° West 173 199 9,100 -540 Descending Indianapolis Center
07:56PM 40.0653 -85.4414 255° West 178 205 8,500 -540 Descending Indianapolis Center
07:57PM 40.0525 -85.5053 255° West 180 207 8,100 -540 Descending Indianapolis Center
07:58PM 40.0403 -85.5703 256° West 181 208 7,500 -480 Descending Indianapolis Center
07:59PM 40.0272 -85.6378 256° West 182 209 7,200 -540 Descending Indianapolis Center
08:00PM 40.0167 -85.7500 263° West 184 212 6,100 -540 Descending Indianapolis TRACON
08:01PM 40.0000 -85.8167 252° West 176 203 5,700 -540 Descending Indianapolis TRACON
08:02PM 39.9833 -85.8833 252° West 175 201 5,100 -600 Descending Indianapolis TRACON
08:03PM 39.9667 -85.9500 252° West 185 213 4,500 -600 Descending Indianapolis TRACON
08:04PM 39.9500 -86.0000 247° West 184 212 4,000 -540 Descending Indianapolis TRACON